Time;durP1;ratioP1;P1;durP2;ratioP2;P2;SDS_P1;SDS_P2;PMS_P1;PMS_P2;Temp;Humidity;BMP_temperature;BMP_pressure;BME280_temperature;BME280_humidity;BME280_pressure;Samples;Min_cycle;Max_cycle;Signal;HPM_P1;HPM_P2
2022/03/12 00:00:11;;;;;;;7.60;1.50;;;9.10;99.90;;;;;;5023701;28;20013;-75
2022/03/12 00:02:37;;;;;;;9.40;1.13;;;9.10;99.90;;;;;;5029687;28;20465;-74
2022/03/12 00:05:07;;;;;;;8.52;1.05;;;9.10;99.90;;;;;;5028881;28;20025;-74
2022/03/12 00:07:34;;;;;;;10.40;1.45;;;9.10;99.90;;;;;;5055900;28;20373;-74
2022/03/12 00:10:00;;;;;;;10.13;1.58;;;9.10;99.90;;;;;;5024976;28;20025;-75
2022/03/12 00:12:30;;;;;;;10.60;1.13;;;9.10;99.90;;;;;;5018387;28;20044;-74
2022/03/12 00:14:56;;;;;;;8.85;1.10;;;9.00;99.90;;;;;;5020898;28;20022;-74
2022/03/12 00:17:25;;;;;;;10.18;1.38;;;9.00;99.90;;;;;;5021395;28;20026;-75
2022/03/12 00:19:50;;;;;;;9.13;1.20;;;9.00;99.90;;;;;;5028794;28;20029;-75
2022/03/12 00:22:16;;;;;;;7.57;1.08;;;9.00;99.90;;;;;;5019928;28;20505;-75
2022/03/12 00:24:43;;;;;;;8.82;1.30;;;8.90;99.90;;;;;;5024381;28;20171;-75
2022/03/12 00:27:10;;;;;;;7.80;1.55;;;8.90;99.90;;;;;;5024136;28;20385;-75
2022/03/12 00:29:37;;;;;;;9.40;1.10;;;8.90;99.90;;;;;;5021636;28;20021;-75
2022/03/12 00:32:06;;;;;;;5.63;1.00;;;8.90;99.90;;;;;;5018667;28;20528;-74
2022/03/12 00:34:32;;;;;;;6.32;1.00;;;8.90;99.90;;;;;;5020558;28;20030;-74
2022/03/12 00:36:57;;;;;;;7.13;1.00;;;8.90;99.90;;;;;;5016887;28;20030;-74
2022/03/12 00:39:23;;;;;;;7.78;1.10;;;8.80;99.90;;;;;;5024617;28;20040;-74
2022/03/12 00:41:49;;;;;;;8.20;1.10;;;8.80;99.90;;;;;;5025667;28;20036;-73
2022/03/12 00:44:17;;;;;;;7.68;1.10;;;8.80;99.90;;;;;;5026083;28;20025;-73
2022/03/12 00:46:44;;;;;;;6.05;1.00;;;8.80;99.90;;;;;;5027022;28;20022;-73
2022/03/12 00:49:10;;;;;;;7.68;0.98;;;8.80;99.90;;;;;;5024866;28;20082;-73
2022/03/12 00:51:38;;;;;;;14.60;1.45;;;8.80;99.90;;;;;;5016328;28;20112;-73
2022/03/12 00:54:04;;;;;;;6.75;1.15;;;8.70;99.90;;;;;;5027649;28;20504;-74
2022/03/12 00:56:30;;;;;;;8.18;1.65;;;8.70;99.90;;;;;;5027436;28;20078;-74
2022/03/12 00:58:57;;;;;;;9.20;1.42;;;8.70;99.90;;;;;;5021785;28;20503;-74
2022/03/12 01:01:25;;;;;;;6.28;1.20;;;8.70;99.90;;;;;;5018438;28;20051;-74
2022/03/12 01:03:50;;;;;;;8.23;1.80;;;8.70;99.90;;;;;;5013227;28;20029;-74
2022/03/12 01:06:18;;;;;;;10.73;1.80;;;8.60;99.90;;;;;;5023396;28;20018;-73
2022/03/12 01:08:46;;;;;;;9.13;1.27;;;8.60;99.90;;;;;;5025639;28;20034;-74
2022/03/12 01:11:12;;;;;;;5.57;0.90;;;8.60;99.90;;;;;;5023591;28;20033;-74
2022/03/12 01:13:39;;;;;;;6.97;1.23;;;8.60;99.90;;;;;;5016112;28;20041;-74
2022/03/12 01:16:06;;;;;;;7.95;1.60;;;8.60;99.90;;;;;;5021560;28;20028;-74
2022/03/12 01:18:36;;;;;;;5.97;1.60;;;8.60;99.90;;;;;;5022758;28;20044;-74
2022/03/12 01:21:17;;;;;;;7.60;1.20;;;8.50;99.90;;;;;;5016082;28;20409;-74
2022/03/12 01:23:44;;;;;;;7.03;1.30;;;8.50;99.90;;;;;;5021856;28;20091;-74
2022/03/12 01:26:11;;;;;;;6.65;1.40;;;8.50;99.90;;;;;;5022249;28;20576;-73
2022/03/12 01:28:38;;;;;;;8.73;1.27;;;8.40;99.90;;;;;;5020570;28;20028;-74
2022/03/12 01:31:04;;;;;;;10.70;2.03;;;8.40;99.90;;;;;;5022944;28;20075;-74
2022/03/12 01:33:30;;;;;;;10.57;2.30;;;8.40;99.90;;;;;;5026877;28;20037;-74
2022/03/12 01:35:59;;;;;;;8.38;2.20;;;8.40;99.90;;;;;;5027846;28;20159;-74
2022/03/12 01:38:47;;;;;;;6.05;1.58;;;8.40;99.90;;;;;;5020755;28;20087;-74
2022/03/12 01:41:15;;;;;;;6.70;1.60;;;8.30;99.90;;;;;;5016203;28;20080;-74
2022/03/12 01:43:43;;;;;;;7.07;1.40;;;8.30;99.90;;;;;;5020601;28;20036;-73
2022/03/12 01:46:10;;;;;;;7.68;1.10;;;8.30;99.90;;;;;;5021694;28;20033;-74
2022/03/12 01:48:45;;;;;;;7.75;1.38;;;8.20;99.90;;;;;;5023556;28;20080;-74
2022/03/12 01:51:11;;;;;;;8.20;0.98;;;8.20;99.90;;;;;;5022042;28;20110;-73
2022/03/12 01:53:36;;;;;;;11.05;1.40;;;8.20;99.90;;;;;;5021922;28;20128;-73
2022/03/12 01:56:03;;;;;;;7.65;2.05;;;8.20;99.90;;;;;;5020802;28;20025;-74
2022/03/12 01:58:29;;;;;;;7.70;1.90;;;8.10;99.90;;;;;;5021091;28;20425;-73
2022/03/12 02:00:57;;;;;;;8.70;1.80;;;8.10;99.90;;;;;;5026559;28;20080;-73
2022/03/12 02:03:26;;;;;;;13.95;2.05;;;8.10;99.90;;;;;;5020891;28;20062;-73
2022/03/12 02:05:53;;;;;;;11.13;1.63;;;8.10;99.90;;;;;;5024432;28;20496;-74
2022/03/12 02:08:19;;;;;;;10.82;2.13;;;8.10;99.90;;;;;;5024346;28;20585;-73
2022/03/12 02:10:47;;;;;;;8.60;2.30;;;8.10;99.90;;;;;;5020115;28;20029;-73
2022/03/12 02:13:13;;;;;;;17.80;3.03;;;8.10;99.90;;;;;;5023615;28;20091;-73
2022/03/12 02:15:39;;;;;;;13.77;2.60;;;8.10;99.90;;;;;;5012759;28;20029;-73
2022/03/12 02:18:06;;;;;;;17.65;2.88;;;8.10;99.90;;;;;;5019250;28;20100;-74
2022/03/12 02:20:31;;;;;;;14.40;1.70;;;8.00;99.90;;;;;;5026615;28;20597;-73
2022/03/12 02:22:59;;;;;;;10.77;1.48;;;8.00;99.90;;;;;;5021045;28;20029;-73
2022/03/12 02:25:31;;;;;;;13.63;1.88;;;8.00;99.90;;;;;;5022657;28;20100;-74
2022/03/12 02:27:59;;;;;;;10.75;1.48;;;8.00;99.90;;;;;;5023122;28;20052;-73
2022/03/12 02:30:34;;;;;;;14.57;1.92;;;8.00;99.90;;;;;;5015756;28;20488;-73
2022/03/12 02:33:04;;;;;;;13.02;1.73;;;8.00;99.90;;;;;;5026838;28;20497;-73
2022/03/12 02:35:34;;;;;;;11.70;1.45;;;8.10;99.90;;;;;;5031376;28;20034;-73
2022/03/12 02:38:01;;;;;;;12.35;1.70;;;8.10;99.90;;;;;;5024033;28;20472;-73
2022/03/12 02:40:27;;;;;;;15.65;1.90;;;8.10;99.90;;;;;;5025635;28;20049;-73
2022/03/12 02:42:56;;;;;;;19.80;2.55;;;8.20;99.90;;;;;;5023622;28;20033;-73
2022/03/12 02:45:23;;;;;;;8.35;2.13;;;8.20;99.90;;;;;;5024496;28;20532;-73
2022/03/12 02:47:50;;;;;;;15.95;2.50;;;8.20;99.90;;;;;;5032584;28;20088;-73
2022/03/12 02:50:16;;;;;;;17.83;2.75;;;8.20;99.90;;;;;;5029522;28;20493;-74
2022/03/12 02:52:44;;;;;;;14.88;2.30;;;8.20;99.90;;;;;;5022976;28;20095;-73
2022/03/12 02:55:13;;;;;;;11.00;2.00;;;8.30;99.90;;;;;;5025936;28;20049;-73
2022/03/12 02:57:47;;;;;;;15.30;1.92;;;8.30;99.90;;;;;;5021598;28;20027;-73
2022/03/12 03:00:15;;;;;;;12.20;1.75;;;8.30;99.90;;;;;;5025366;28;20459;-73
2022/03/12 03:02:42;;;;;;;14.65;1.63;;;8.30;99.90;;;;;;5030815;28;20065;-73
2022/03/12 03:05:29;;;;;;;15.90;1.98;;;8.30;99.90;;;;;;5027533;28;20028;-73
2022/03/12 03:07:56;;;;;;;18.25;2.10;;;8.40;99.90;;;;;;5028347;28;20018;-73
2022/03/12 03:10:39;;;;;;;13.55;2.10;;;8.40;99.90;;;;;;5026856;28;20100;-74
2022/03/12 03:13:28;;;;;;;22.42;2.72;;;8.30;99.90;;;;;;5027766;28;20041;-74
2022/03/12 03:16:00;;;;;;;16.23;2.22;;;8.30;99.90;;;;;;5021657;28;20498;-73
2022/03/12 03:18:29;;;;;;;22.55;2.60;;;8.30;99.90;;;;;;5023296;28;20512;-73
2022/03/12 03:20:57;;;;;;;15.77;2.25;;;8.30;99.90;;;;;;5026531;28;20028;-73
2022/03/12 03:23:25;;;;;;;14.60;2.28;;;8.20;99.90;;;;;;5025461;28;20033;-74
2022/03/12 03:25:51;;;;;;;18.98;2.55;;;8.20;99.90;;;;;;5024727;28;20021;-73
2022/03/12 03:28:18;;;;;;;19.13;2.55;;;8.20;99.90;;;;;;5019728;28;20037;-73
2022/03/12 03:30:44;;;;;;;17.02;2.50;;;8.20;99.90;;;;;;5025482;28;20051;-74
2022/03/12 03:33:14;;;;;;;15.07;2.65;;;8.20;99.90;;;;;;5029154;28;20042;-74
2022/03/12 03:35:40;;;;;;;17.45;2.70;;;8.10;99.90;;;;;;5031983;28;20108;-74
2022/03/12 03:38:07;;;;;;;16.00;2.20;;;8.10;99.90;;;;;;5027092;28;20033;-74
2022/03/12 03:40:33;;;;;;;19.27;2.60;;;8.10;99.90;;;;;;5022666;28;20474;-74
2022/03/12 03:42:59;;;;;;;17.10;2.28;;;8.10;99.90;;;;;;5028108;28;20484;-73
2022/03/12 03:45:27;;;;;;;23.05;2.28;;;8.10;99.90;;;;;;5026711;28;20022;-74
2022/03/12 03:47:55;;;;;;;14.80;2.83;;;8.10;99.90;;;;;;5021861;28;20026;-73
2022/03/12 03:50:25;;;;;;;18.15;2.78;;;8.10;99.90;;;;;;5021839;28;20025;-74
2022/03/12 03:52:56;;;;;;;18.52;2.95;;;8.10;99.90;;;;;;5025675;28;20130;-74
2022/03/12 03:55:28;;;;;;;20.85;3.10;;;8.00;99.90;;;;;;5028367;28;20029;-73
2022/03/12 03:57:54;;;;;;;21.05;2.35;;;8.00;99.90;;;;;;5027365;28;20492;-75
2022/03/12 04:00:22;;;;;;;16.05;2.08;;;8.00;99.90;;;;;;5025781;28;24912;-75
2022/03/12 04:02:48;;;;;;;18.13;3.15;;;8.00;99.90;;;;;;5020653;28;20518;-75
2022/03/12 04:05:13;;;;;;;14.07;2.40;;;8.00;99.90;;;;;;5024506;28;20080;-75
2022/03/12 04:07:39;;;;;;;17.70;2.60;;;8.00;99.90;;;;;;5024375;28;20029;-75
2022/03/12 04:10:05;;;;;;;19.65;2.80;;;8.00;99.90;;;;;;5021293;28;20030;-75
2022/03/12 04:12:31;;;;;;;15.18;2.80;;;8.00;99.90;;;;;;5021538;28;20037;-75
2022/03/12 04:14:58;;;;;;;19.00;3.25;;;7.90;99.90;;;;;;5025769;28;20022;-75
2022/03/12 04:17:24;;;;;;;15.45;2.47;;;7.90;99.90;;;;;;5025491;28;20037;-75
2022/03/12 04:19:50;;;;;;;15.45;2.65;;;8.00;99.90;;;;;;5023341;28;20485;-74
2022/03/12 04:22:16;;;;;;;18.27;3.13;;;7.90;99.90;;;;;;5023779;28;20065;-74
2022/03/12 04:24:42;;;;;;;19.02;2.58;;;7.90;99.90;;;;;;5027050;28;20030;-75
2022/03/12 04:27:08;;;;;;;17.10;2.58;;;7.90;99.90;;;;;;5019790;28;20044;-75
2022/03/12 04:29:34;;;;;;;14.43;1.98;;;7.90;99.90;;;;;;5028153;28;20467;-75
2022/03/12 04:32:00;;;;;;;18.38;2.22;;;7.90;99.90;;;;;;5023995;28;20604;-75
2022/03/12 04:34:26;;;;;;;16.05;2.08;;;7.90;99.90;;;;;;5026773;28;20033;-74
2022/03/12 04:36:51;;;;;;;14.20;1.63;;;7.90;99.90;;;;;;5025158;28;20033;-74
2022/03/12 04:39:17;;;;;;;15.55;2.00;;;7.90;99.90;;;;;;5028997;28;20619;-75
2022/03/12 04:41:43;;;;;;;13.70;1.80;;;7.90;99.90;;;;;;5028892;28;20029;-74
2022/03/12 04:44:09;;;;;;;19.60;2.22;;;7.90;99.90;;;;;;5023259;28;20069;-74
2022/03/12 04:46:35;;;;;;;18.05;4.53;;;7.90;99.90;;;;;;5024488;28;20055;-74
2022/03/12 04:49:02;;;;;;;16.83;4.47;;;7.90;99.90;;;;;;5020626;28;20106;-75
2022/03/12 04:51:29;;;;;;;30.77;5.55;;;7.90;99.90;;;;;;5022876;28;20061;-74
2022/03/12 04:53:59;;;;;;;26.52;5.38;;;7.90;99.90;;;;;;5026878;28;20033;-75
2022/03/12 04:56:28;;;;;;;23.52;5.00;;;7.80;99.90;;;;;;5029117;28;20512;-74
2022/03/12 04:58:55;;;;;;;23.67;5.03;;;7.80;99.90;;;;;;5026537;28;20038;-75
2022/03/12 05:01:22;;;;;;;22.45;5.05;;;7.80;99.90;;;;;;5025368;28;20045;-74
2022/03/12 05:03:47;;;;;;;24.05;4.53;;;7.90;99.90;;;;;;5025863;28;20029;-74
2022/03/12 05:06:13;;;;;;;19.08;4.20;;;7.90;99.90;;;;;;5023848;28;20519;-75
2022/03/12 05:08:40;;;;;;;20.88;3.20;;;7.90;99.90;;;;;;5026050;28;20022;-74
2022/03/12 05:11:06;;;;;;;18.90;3.25;;;7.90;99.90;;;;;;5026373;28;20112;-74
2022/03/12 05:13:32;;;;;;;17.80;2.72;;;8.00;99.90;;;;;;5024741;28;20049;-74
2022/03/12 05:16:04;;;;;;;16.38;2.10;;;8.00;99.90;;;;;;5019214;28;20450;-74
2022/03/12 05:18:31;;;;;;;16.45;2.22;;;8.00;99.90;;;;;;5019119;28;20053;-74
2022/03/12 05:20:57;;;;;;;14.23;2.15;;;8.00;99.90;;;;;;5021234;28;20025;-74
2022/03/12 05:23:24;;;;;;;16.92;2.10;;;8.00;99.90;;;;;;5024586;28;20044;-74
2022/03/12 05:25:50;;;;;;;18.88;2.05;;;8.00;99.90;;;;;;5025408;28;20451;-73
2022/03/12 05:28:17;;;;;;;17.90;2.00;;;8.00;99.90;;;;;;5021685;28;20037;-73
2022/03/12 05:30:45;;;;;;;19.63;2.40;;;8.00;99.90;;;;;;5025617;28;20072;-73
2022/03/12 05:33:13;;;;;;;21.60;2.83;;;7.90;99.90;;;;;;5022320;28;20684;-73
2022/03/12 05:35:43;;;;;;;17.83;3.08;;;7.90;99.90;;;;;;5029461;28;20083;-74
2022/03/12 05:38:11;;;;;;;18.27;3.20;;;7.90;99.90;;;;;;5020289;28;20034;-74
2022/03/12 05:40:39;;;;;;;18.58;3.00;;;7.80;99.90;;;;;;5019938;28;20037;-73
2022/03/12 05:43:15;;;;;;;19.20;3.58;;;7.80;99.90;;;;;;5023714;28;20457;-74
2022/03/12 05:45:45;;;;;;;24.52;4.43;;;7.80;99.90;;;;;;5024968;28;20081;-74
2022/03/12 05:48:15;;;;;;;18.48;2.55;;;7.70;99.90;;;;;;5027157;28;20106;-74
2022/03/12 05:50:48;;;;;;;18.70;2.33;;;7.70;99.90;;;;;;5022240;28;20124;-73
2022/03/12 05:53:19;;;;;;;19.10;2.15;;;7.60;99.90;;;;;;5023130;28;20037;-73
2022/03/12 05:55:53;;;;;;;18.20;2.25;;;7.60;99.90;;;;;;5019952;28;20084;-73
2022/03/12 05:58:26;;;;;;;22.10;2.10;;;7.60;99.90;;;;;;5026473;28;20413;-74
2022/03/12 06:00:59;;;;;;;20.17;2.58;;;7.50;99.90;;;;;;5020785;28;20057;-73
2022/03/12 06:03:29;;;;;;;19.75;3.05;;;7.50;99.90;;;;;;5018949;28;20060;-74
2022/03/12 06:05:59;;;;;;;22.42;3.03;;;7.50;99.90;;;;;;5027877;28;20026;-73
2022/03/12 06:08:29;;;;;;;16.10;2.42;;;7.40;99.90;;;;;;5024708;28;20029;-74
2022/03/12 06:11:00;;;;;;;21.15;2.70;;;7.50;99.90;;;;;;5022301;28;20024;-73
2022/03/12 06:13:30;;;;;;;26.70;3.97;;;7.40;99.90;;;;;;5025769;28;20071;-73
2022/03/12 06:16:03;;;;;;;20.70;2.92;;;7.40;99.90;;;;;;5017448;28;20046;-73
2022/03/12 06:18:36;;;;;;;19.27;2.92;;;7.40;99.90;;;;;;5022144;28;20029;-74
2022/03/12 06:21:04;;;;;;;22.95;3.67;;;7.40;99.90;;;;;;5025688;28;20022;-73
2022/03/12 06:23:30;;;;;;;13.82;3.35;;;7.40;99.90;;;;;;5024101;28;20942;-74
2022/03/12 06:25:57;;;;;;;22.55;4.20;;;7.30;99.90;;;;;;5025604;28;20026;-74
2022/03/12 06:28:23;;;;;;;26.65;3.28;;;7.30;99.90;;;;;;5023834;28;20033;-73
2022/03/12 06:30:53;;;;;;;24.75;3.00;;;7.30;99.90;;;;;;5023053;28;20114;-74
2022/03/12 06:33:19;;;;;;;30.25;3.00;;;7.30;99.90;;;;;;5029866;28;20033;-73
2022/03/12 06:35:46;;;;;;;20.35;2.47;;;7.30;99.90;;;;;;5027106;28;20029;-74
2022/03/12 06:38:14;;;;;;;12.85;2.28;;;7.30;99.90;;;;;;5026766;28;20040;-74
2022/03/12 06:40:40;;;;;;;24.50;2.78;;;7.30;99.90;;;;;;5022739;28;20021;-75
2022/03/12 06:43:10;;;;;;;21.40;2.80;;;7.30;99.90;;;;;;5016703;28;20111;-74
2022/03/12 06:45:36;;;;;;;16.25;2.50;;;7.30;99.90;;;;;;5024643;28;20886;-73
2022/03/12 06:48:02;;;;;;;22.23;3.50;;;7.30;99.90;;;;;;5029182;28;20025;-74
2022/03/12 06:50:29;;;;;;;21.17;4.13;;;7.30;99.90;;;;;;5023760;28;20018;-74
2022/03/12 06:52:58;;;;;;;22.70;4.35;;;7.40;99.90;;;;;;5022994;28;20030;-75
2022/03/12 06:55:28;;;;;;;17.35;3.08;;;7.30;99.90;;;;;;5020879;28;20033;-75
2022/03/12 06:57:59;;;;;;;21.80;3.13;;;7.40;99.90;;;;;;5032828;28;20575;-75
2022/03/12 07:00:28;;;;;;;18.80;3.20;;;7.40;99.90;;;;;;5025866;28;20120;-74
2022/03/12 07:02:55;;;;;;;18.10;3.30;;;7.50;99.90;;;;;;5028681;28;20026;-74
2022/03/12 07:05:22;;;;;;;25.45;5.00;;;7.50;99.90;;;;;;5024241;28;20032;-72
2022/03/12 07:07:49;;;;;;;23.08;7.90;;;7.60;99.90;;;;;;5026663;28;20040;-75
2022/03/12 07:10:17;;;;;;;25.90;9.45;;;7.70;99.90;;;;;;5025367;28;20033;-76
2022/03/12 07:12:44;;;;;;;23.52;10.05;;;7.80;99.90;;;;;;5023172;28;20053;-75
2022/03/12 07:15:13;;;;;;;20.25;7.47;;;8.00;99.90;;;;;;5025270;28;20025;-76
2022/03/12 07:17:41;;;;;;;23.10;3.90;;;8.20;99.90;;;;;;5027798;28;20029;-77
2022/03/12 07:20:08;;;;;;;16.55;2.33;;;8.90;99.90;;;;;;5023312;28;20039;-77
2022/03/12 07:22:38;;;;;;;16.25;2.28;;;9.70;99.90;;;;;;5027931;28;20507;-75
2022/03/12 07:25:11;;;;;;;17.93;2.20;;;10.20;99.90;;;;;;5026828;28;20037;-76
2022/03/12 07:27:37;;;;;;;14.05;2.33;;;10.80;97.30;;;;;;5027585;28;20289;-76
2022/03/12 07:30:04;;;;;;;17.02;2.78;;;11.50;93.60;;;;;;5026479;28;20416;-77
2022/03/12 07:32:30;;;;;;;14.07;2.15;;;12.80;88.10;;;;;;5029642;28;20040;-76
2022/03/12 07:34:55;;;;;;;13.18;2.22;;;13.70;79.80;;;;;;5029459;28;20022;-77
2022/03/12 07:37:21;;;;;;;15.70;2.42;;;14.40;75.50;;;;;;5026788;28;20027;-78
2022/03/12 07:39:47;;;;;;;15.27;2.78;;;15.30;71.70;;;;;;5020348;28;20459;-81
2022/03/12 07:42:14;;;;;;;15.20;2.38;;;16.30;65.20;;;;;;5028010;28;20036;-77
2022/03/12 07:44:40;;;;;;;16.50;2.85;;;17.00;60.80;;;;;;5028043;28;20017;-76
2022/03/12 07:47:07;;;;;;;14.45;2.90;;;17.80;57.00;;;;;;5029181;28;20036;-77
2022/03/12 07:49:34;;;;;;;17.75;3.42;;;18.50;54.50;;;;;;5025001;28;20412;-77
2022/03/12 07:52:00;;;;;;;17.58;3.53;;;19.00;52.10;;;;;;5026164;28;20048;-74
2022/03/12 07:54:27;;;;;;;19.33;4.47;;;19.40;50.10;;;;;;5024494;28;20022;-77
2022/03/12 07:57:00;;;;;;;18.25;4.20;;;19.90;48.60;;;;;;5028402;28;20106;-74
2022/03/12 07:59:29;;;;;;;21.83;4.53;;;20.50;46.70;;;;;;5030258;28;20045;-77
2022/03/12 08:01:58;;;;;;;21.48;4.45;;;20.90;45.40;;;;;;5025371;28;20073;-77
2022/03/12 08:04:30;;;;;;;18.65;4.43;;;21.30;43.90;;;;;;5018076;28;20602;-77
2022/03/12 08:07:02;;;;;;;18.73;4.30;;;21.60;43.20;;;;;;5020707;28;20068;-77
2022/03/12 08:09:33;;;;;;;23.73;5.03;;;22.00;42.30;;;;;;5023775;28;20033;-77
2022/03/12 08:12:07;;;;;;;24.67;4.05;;;22.30;41.80;;;;;;5027548;28;20021;-78
2022/03/12 08:14:37;;;;;;;18.83;4.20;;;22.80;41.00;;;;;;5023502;28;20099;-76
2022/03/12 08:17:06;;;;;;;17.83;3.20;;;23.30;39.70;;;;;;5050271;28;20026;-78
2022/03/12 08:19:32;;;;;;;15.50;3.10;;;23.80;38.90;;;;;;5039310;28;20124;-77
2022/03/12 08:21:59;;;;;;;19.35;3.30;;;24.20;37.80;;;;;;5021752;28;20104;-78
2022/03/12 08:24:25;;;;;;;16.33;2.90;;;24.80;38.40;;;;;;5022199;28;20516;-77
2022/03/12 08:26:51;;;;;;;15.70;2.83;;;25.30;36.10;;;;;;5023912;28;20061;-77
2022/03/12 08:29:18;;;;;;;14.82;2.83;;;25.90;34.90;;;;;;5027120;28;20048;-77
2022/03/12 08:31:44;;;;;;;14.70;2.88;;;26.20;33.70;;;;;;5021285;28;20080;-74
2022/03/12 08:34:11;;;;;;;15.18;2.85;;;26.50;33.30;;;;;;5019568;28;20029;-77
2022/03/12 08:36:37;;;;;;;16.90;3.35;;;26.70;32.90;;;;;;5025659;28;20036;-78
2022/03/12 08:39:03;;;;;;;15.60;3.30;;;27.00;32.20;;;;;;5018127;28;20026;-78
2022/03/12 08:41:29;;;;;;;15.65;3.13;;;27.10;31.80;;;;;;5020790;28;20026;-78
2022/03/12 08:43:55;;;;;;;18.20;4.03;;;27.40;31.80;;;;;;5020103;28;20025;-78
2022/03/12 08:46:21;;;;;;;12.95;2.80;;;27.70;31.20;;;;;;5018013;28;20038;-77
2022/03/12 08:48:47;;;;;;;17.38;2.88;;;28.20;31.20;;;;;;5018473;28;20034;-78
2022/03/12 08:51:13;;;;;;;12.13;2.83;;;28.50;30.50;;;;;;5016689;28;20030;-78
2022/03/12 08:53:39;;;;;;;17.05;2.85;;;28.80;29.70;;;;;;5019802;28;20041;-77
2022/03/12 08:56:05;;;;;;;18.98;2.78;;;29.30;28.80;;;;;;5016156;28;20049;-78
2022/03/12 08:58:31;;;;;;;17.40;2.75;;;29.70;28.60;;;;;;5019645;28;20396;-78
2022/03/12 09:01:02;;;;;;;14.73;2.75;;;29.70;29.30;;;;;;5026071;28;20049;-77
2022/03/12 09:03:30;;;;;;;13.52;3.08;;;30.20;28.20;;;;;;5027304;28;20061;-78
2022/03/12 09:05:56;;;;;;;15.82;2.78;;;30.60;27.90;;;;;;5024959;28;20078;-78
2022/03/12 09:08:22;;;;;;;15.40;2.70;;;31.00;27.30;;;;;;5021384;28;20057;-78
2022/03/12 09:10:47;;;;;;;14.48;2.58;;;31.50;26.60;;;;;;5020425;28;20017;-78
2022/03/12 09:13:16;;;;;;;15.68;2.67;;;31.50;26.60;;;;;;5024907;28;20053;-78
2022/03/12 09:15:42;;;;;;;15.23;2.80;;;31.80;25.90;;;;;;5026053;28;20492;-78
2022/03/12 09:18:09;;;;;;;15.75;2.65;;;32.00;25.90;;;;;;5027575;28;20029;-78
2022/03/12 09:20:43;;;;;;;11.38;2.85;;;32.40;25.80;;;;;;5026647;28;20010;-77
2022/03/12 09:23:09;;;;;;;12.35;2.70;;;32.70;25.10;;;;;;5015679;28;20536;-78
2022/03/12 09:25:35;;;;;;;15.55;2.80;;;32.80;24.90;;;;;;5022178;28;20660;-78
2022/03/12 09:28:01;;;;;;;18.33;2.92;;;32.90;24.50;;;;;;5022019;28;20079;-78
2022/03/12 09:30:27;;;;;;;15.18;3.00;;;33.10;24.40;;;;;;5023023;28;20069;-78
2022/03/12 09:32:54;;;;;;;14.30;2.92;;;32.90;24.20;;;;;;5028137;28;20056;-78
2022/03/12 09:35:20;;;;;;;13.30;2.38;;;32.90;24.20;;;;;;5026514;28;20040;-78
2022/03/12 09:37:47;;;;;;;14.25;3.05;;;33.00;24.00;;;;;;5021364;28;20427;-78
2022/03/12 09:40:15;;;;;;;15.00;3.10;;;33.10;23.80;;;;;;5029996;28;20471;-79
2022/03/12 09:42:41;;;;;;;12.73;2.70;;;33.50;23.30;;;;;;5022799;28;20025;-78
2022/03/12 09:45:08;;;;;;;15.68;2.70;;;33.50;23.20;;;;;;5024495;28;20492;-77
2022/03/12 09:47:34;;;;;;;12.68;2.88;;;33.60;23.20;;;;;;5025084;28;20037;-78
2022/03/12 09:50:00;;;;;;;13.00;2.63;;;32.60;24.10;;;;;;5025338;28;20488;-78
2022/03/12 09:52:26;;;;;;;13.73;2.78;;;32.80;23.90;;;;;;5020323;28;20056;-78
2022/03/12 09:54:52;;;;;;;12.80;2.70;;;32.90;23.60;;;;;;5024428;28;20444;-78
2022/03/12 09:57:18;;;;;;;13.45;2.50;;;33.50;22.90;;;;;;5017105;28;20405;-78
2022/03/12 09:59:44;;;;;;;15.55;2.72;;;34.00;22.50;;;;;;5015298;28;20034;-77
2022/03/12 10:02:10;;;;;;;11.13;2.55;;;34.30;22.40;;;;;;5027890;28;20122;-78
2022/03/12 10:04:37;;;;;;;11.48;2.60;;;34.60;21.70;;;;;;5017459;28;20509;-77
2022/03/12 10:07:06;;;;;;;12.15;2.88;;;34.50;21.80;;;;;;5054883;28;20025;-77
2022/03/12 10:09:32;;;;;;;12.70;3.03;;;33.70;22.70;;;;;;5021701;28;20408;-78
2022/03/12 10:11:59;;;;;;;14.20;2.65;;;31.90;24.10;;;;;;5029537;28;20638;-77
2022/03/12 10:14:25;;;;;;;11.93;2.60;;;32.90;22.70;;;;;;5025289;28;20068;-78
2022/03/12 10:16:51;;;;;;;13.10;2.90;;;33.70;21.50;;;;;;5026204;28;20060;-78
2022/03/12 10:19:19;;;;;;;11.45;2.72;;;34.40;20.80;;;;;;5019926;28;20057;-76
2022/03/12 10:21:45;;;;;;;10.27;2.35;;;34.60;20.60;;;;;;5021111;28;20766;-77
2022/03/12 10:24:12;;;;;;;11.57;2.50;;;34.80;20.40;;;;;;5022930;28;20083;-78
2022/03/12 10:26:38;;;;;;;11.63;2.10;;;34.70;20.40;;;;;;5023663;28;20499;-78
2022/03/12 10:29:05;;;;;;;14.95;2.42;;;33.30;21.20;;;;;;5023940;28;20037;-78
2022/03/12 10:31:31;;;;;;;10.82;2.10;;;31.80;22.10;;;;;;5021111;28;20034;-80
2022/03/12 10:34:21;;;;;;;10.65;2.50;;;31.80;22.10;;;;;;5018469;28;20045;-77
2022/03/12 10:36:48;;;;;;;;;;;30.30;23.70;;;;;;5019593;28;20025;-78
2022/03/12 10:39:14;;;;;;;9.43;2.28;;;31.70;21.90;;;;;;5025595;28;19961;-79
2022/03/12 10:41:41;;;;;;;9.63;2.20;;;32.20;20.70;;;;;;5021110;28;20053;-78
2022/03/12 10:44:07;;;;;;;10.07;2.35;;;32.90;20.30;;;;;;5020440;28;20108;-79
2022/03/12 10:46:35;;;;;;;11.23;2.65;;;33.30;20.00;;;;;;5019999;28;20026;-78
2022/03/12 10:49:03;;;;;;;10.10;2.20;;;33.30;19.80;;;;;;5021915;28;20030;-78
2022/03/12 10:51:39;;;;;;;12.15;2.50;;;33.70;18.80;;;;;;5024301;28;20029;-79
2022/03/12 10:54:15;;;;;;;10.88;2.40;;;34.00;18.50;;;;;;5024959;28;20528;-79
2022/03/12 10:56:48;;;;;;;9.10;2.08;;;34.30;18.10;;;;;;5025628;28;20026;-81
2022/03/12 10:59:19;;;;;;;10.93;2.28;;;34.20;18.20;;;;;;5024272;28;20151;-79
2022/03/12 11:01:57;;;;;;;13.63;2.17;;;32.60;19.20;;;;;;5026066;28;20041;-79
2022/03/12 11:04:29;;;;;;;11.45;2.10;;;30.80;20.80;;;;;;5029185;28;20032;-79
2022/03/12 11:06:59;;;;;;;9.45;2.15;;;31.10;20.70;;;;;;5023899;28;20032;-79
2022/03/12 11:09:38;;;;;;;9.63;2.20;;;32.10;19.60;;;;;;5027323;28;20604;-78
2022/03/12 11:12:35;;;;;;;9.63;1.93;;;33.30;18.70;;;;;;5029802;28;20107;-79
2022/03/12 11:15:15;;;;;;;9.43;2.00;;;33.50;19.10;;;;;;5026988;28;20030;-78
2022/03/12 11:17:50;;;;;;;10.75;1.90;;;33.50;18.80;;;;;;5020681;28;20523;-77
2022/03/12 11:20:28;;;;;;;14.63;2.42;;;30.50;21.00;;;;;;5027139;28;20052;-77
2022/03/12 11:23:09;;;;;;;8.60;1.90;;;28.30;23.50;;;;;;5030141;28;20037;-76
2022/03/12 11:25:56;;;;;;;10.13;2.28;;;28.50;23.10;;;;;;5023765;28;20467;-78
2022/03/12 11:28:22;;;;;;;10.40;2.60;;;28.80;22.90;;;;;;5024054;28;20037;-76
2022/03/12 11:30:48;;;;;;;9.82;2.00;;;28.00;23.60;;;;;;5023987;28;20060;-77
2022/03/12 11:33:15;;;;;;;9.35;2.13;;;29.80;21.70;;;;;;5024828;28;20077;-78
2022/03/12 11:35:46;;;;;;;10.93;1.80;;;31.30;20.10;;;;;;5028218;28;20029;-77
2022/03/12 11:38:20;;;;;;;10.05;1.92;;;32.50;18.90;;;;;;5027139;28;20451;-80
2022/03/12 11:41:21;;;;;;;10.48;2.35;;;33.20;18.50;;;;;;5025459;28;20017;-78
2022/03/12 11:43:47;;;;;;;11.13;2.22;;;33.00;18.60;;;;;;5021200;28;20029;-79
2022/03/12 11:46:14;;;;;;;9.85;2.33;;;32.00;19.20;;;;;;5028643;28;20247;-80
2022/03/12 11:48:41;;;;;;;7.68;1.95;;;30.70;20.70;;;;;;5024997;28;20036;-80
2022/03/12 11:51:19;;;;;;;10.25;2.13;;;31.80;19.70;;;;;;5025651;28;20026;-79
2022/03/12 11:53:45;;;;;;;9.93;2.22;;;32.50;19.30;;;;;;5019931;28;20041;-79
2022/03/12 11:56:13;;;;;;;11.25;2.10;;;33.30;18.40;;;;;;5026397;28;20112;-76
2022/03/12 11:58:40;;;;;;;10.65;2.40;;;34.00;18.00;;;;;;5029873;28;20033;-74
2022/03/12 12:01:07;;;;;;;6.38;1.90;;;32.80;18.80;;;;;;5020763;28;20047;-77
2022/03/12 12:03:36;;;;;;;8.82;1.98;;;30.80;21.70;;;;;;5018777;28;20065;-76
2022/03/12 12:06:02;;;;;;;10.23;1.80;;;30.40;20.80;;;;;;5019917;28;20036;-77
2022/03/12 12:08:30;;;;;;;12.60;1.90;;;29.50;21.70;;;;;;5027243;28;20405;-78
2022/03/12 12:10:58;;;;;;;10.18;2.28;;;28.50;23.10;;;;;;5026115;28;20068;-79
2022/03/12 12:13:24;;;;;;;9.57;1.90;;;29.10;22.40;;;;;;5022829;28;20046;-75
2022/03/12 12:15:58;;;;;;;9.30;2.05;;;31.20;20.00;;;;;;5032844;28;20050;-78
2022/03/12 12:18:25;;;;;;;8.18;2.17;;;32.60;19.20;;;;;;5019355;28;20034;-79
2022/03/12 12:20:52;;;;;;;10.65;1.88;;;33.40;18.30;;;;;;5027656;28;20033;-79
2022/03/12 12:23:21;;;;;;;9.50;1.90;;;31.40;20.10;;;;;;5025074;28;20029;-79
2022/03/12 12:25:48;;;;;;;8.07;1.80;;;29.70;21.60;;;;;;5025427;28;20033;-79
2022/03/12 12:28:17;;;;;;;13.68;2.15;;;29.30;21.70;;;;;;5022397;28;20048;-79
2022/03/12 12:30:53;;;;;;;9.30;1.80;;;28.60;22.90;;;;;;5026982;28;20481;-79
2022/03/12 12:33:24;;;;;;;8.77;1.90;;;29.70;20.90;;;;;;5023083;28;20049;-79
2022/03/12 12:36:12;;;;;;;11.88;2.25;;;28.10;23.40;;;;;;5027989;28;20033;-79
2022/03/12 12:38:43;;;;;;;8.27;1.98;;;29.10;21.30;;;;;;5022532;28;20575;-79
2022/03/12 12:41:12;;;;;;;9.18;2.15;;;28.70;21.80;;;;;;5024425;28;20033;-79
2022/03/12 12:43:45;;;;;;;11.70;2.03;;;29.30;21.20;;;;;;5020988;28;20037;-78
2022/03/12 12:46:17;;;;;;;8.60;2.03;;;29.50;21.60;;;;;;5027380;28;20037;-80
2022/03/12 12:48:50;;;;;;;8.32;1.95;;;31.30;19.80;;;;;;5019824;28;20061;-78
2022/03/12 12:51:27;;;;;;;10.07;1.88;;;31.00;20.00;;;;;;5023212;28;20022;-78